Accueil
METAR-TAF:

METAR-TAF

Aéroports :

Ingolstadt, Allemagne

latitude: 48-43N, longitude: 011-32E, altitude: 367 m

Observation

Le bulletin a été fait il y a 43 minutes, à 03:20 UTC
Vent 1 kt de est/nord-est
Température 6°C
Humidité 93%
Pression 1010 hPa

METAR: ETSI 250320Z AUTO 07001KT //// // ////// 06/05 Q1010 ///

Heure: 05:03 (04:03 UTC)

Prévision

Le bulletin a été fait il y a 16 heures et 48 minutes, à 11:15 UTC
Prévision valable du 24 à 12 UTC au 24 à 21 UTC
Vent 3 kt de direction variable
Visibilité: 1300 m
Nuages épars à une hauteur de 13000 ft
Nuages fragmentés à une hauteur de 23000 ft

TAF: ETSI 241115Z 2412/2421 VRB03KT 9999 NSW SCT130 BKN230 CANCEL 1300

Observations et prévisions météorologiques de plus de 4000 aéroports (messages METAR et TAF).

Les stations disponibles sont représentées par des disques jaunes et rouges sur la carte.

Passer la souris dessus pour voir le nom de la station.

Cliquer dessus pour voir les observations et prévisions météorologiques.

Pour changer de carte: cliquez sur les boutons verts avec une croix noire pour zoomer, sur le bouton vert avec un tiret pour effectuer un zoom arrière, ou sur les flèches vertes pour les cartes adjacentes.


METAR-TAF: